createdAt,value
2018-08-31T00:01:04.106Z,6.43
2018-08-31T00:04:53.889Z,5.33
2018-08-31T00:07:56.479Z,5.37
2018-08-31T00:10:45.947Z,5.43
2018-08-31T00:13:17.659Z,5.40
2018-08-31T00:15:49.542Z,5.70
2018-08-31T00:18:21.283Z,7.23
2018-08-31T00:20:52.933Z,7.00
2018-08-31T00:24:43.332Z,6.83
2018-08-31T00:27:31.172Z,7.80
2018-08-31T00:30:19.877Z,7.40
2018-08-31T00:33:16.568Z,6.80
2018-08-31T00:38:42.263Z,5.80
2018-08-31T00:42:44.948Z,6.90
2018-08-31T00:45:37.202Z,7.23
2018-08-31T00:48:09.443Z,6.77
2018-08-31T00:50:41.216Z,7.23
2018-08-31T00:53:12.842Z,5.40
2018-08-31T00:55:44.562Z,5.83
2018-08-31T00:58:16.391Z,6.47
2018-08-31T01:00:48.447Z,6.07
2018-08-31T01:03:20.320Z,7.40
2018-08-31T01:05:52.054Z,7.40
2018-08-31T01:08:23.994Z,7.10
2018-08-31T01:10:55.656Z,5.97
2018-08-31T01:13:27.431Z,5.93
2018-08-31T01:15:59.373Z,5.87
2018-08-31T01:18:31.169Z,5.77
2018-08-31T01:21:02.815Z,5.27
2018-08-31T01:23:34.876Z,5.43
2018-08-31T01:26:06.835Z,6.23
2018-08-31T01:28:38.579Z,5.03
2018-08-31T01:31:10.242Z,5.40
2018-08-31T01:33:41.986Z,6.13
2018-08-31T01:36:13.608Z,5.90
2018-08-31T01:38:45.567Z,5.10
2018-08-31T01:41:17.327Z,5.43
2018-08-31T01:43:49.058Z,4.87
2018-08-31T01:46:20.927Z,6.27
2018-08-31T01:48:52.673Z,5.00
2018-08-31T01:51:24.323Z,4.50
2018-08-31T01:53:55.986Z,5.70
2018-08-31T01:56:27.925Z,6.07
2018-08-31T01:58:59.786Z,6.00
2018-08-31T02:01:31.696Z,6.50
2018-08-31T02:04:04.478Z,6.10
2018-08-31T02:06:36.263Z,4.77
2018-08-31T02:09:14.088Z,6.10
2018-08-31T02:11:46.103Z,6.80
2018-08-31T02:14:17.937Z,6.60
2018-08-31T02:16:49.694Z,6.90
2018-08-31T02:19:21.560Z,6.60
2018-08-31T02:21:53.342Z,7.00
2018-08-31T02:24:25.061Z,6.17
2018-08-31T02:26:56.685Z,6.00
2018-08-31T02:29:28.573Z,5.43
2018-08-31T02:32:00.641Z,4.83
2018-08-31T02:34:32.429Z,7.23
2018-08-31T02:37:04.208Z,7.17
2018-08-31T02:39:35.829Z,6.50
2018-08-31T02:42:07.774Z,6.80
2018-08-31T02:44:39.645Z,6.10
2018-08-31T02:47:11.305Z,5.43
2018-08-31T02:49:43.072Z,5.17
2018-08-31T02:52:14.862Z,6.40
2018-08-31T02:54:46.622Z,6.20
2018-08-31T02:57:18.329Z,5.77
2018-08-31T02:59:50.089Z,5.43
2018-08-31T03:02:21.779Z,6.67
2018-08-31T03:04:53.601Z,6.00
2018-08-31T03:07:25.293Z,5.63
2018-08-31T03:09:57.047Z,6.37
2018-08-31T03:12:28.832Z,6.13
2018-08-31T03:15:00.458Z,6.27
2018-08-31T03:17:32.217Z,6.10
2018-08-31T03:20:03.994Z,6.27
2018-08-31T03:22:35.556Z,5.90
2018-08-31T03:25:07.417Z,5.80
2018-08-31T03:27:39.281Z,5.80
2018-08-31T03:30:11.017Z,6.17
2018-08-31T03:32:42.807Z,5.27
2018-08-31T03:35:14.560Z,6.50
2018-08-31T03:37:46.177Z,5.37
2018-08-31T03:40:18.018Z,5.73
2018-08-31T03:42:49.918Z,4.83
2018-08-31T03:45:21.750Z,6.23
2018-08-31T03:47:53.432Z,5.10
2018-08-31T03:50:25.117Z,5.77
2018-08-31T03:52:56.972Z,5.20
2018-08-31T03:55:28.986Z,5.27
2018-08-31T03:58:00.948Z,6.50
2018-08-31T04:00:32.631Z,6.40
2018-08-31T04:03:04.597Z,6.33
2018-08-31T04:05:36.485Z,7.07
2018-08-31T04:08:08.105Z,7.00
2018-08-31T04:10:39.941Z,6.40
2018-08-31T04:13:11.616Z,5.27
2018-08-31T04:15:43.389Z,5.50
2018-08-31T04:18:15.246Z,6.13
2018-08-31T04:20:47.018Z,5.23
2018-08-31T04:23:18.759Z,6.17
2018-08-31T04:25:50.658Z,6.03
2018-08-31T04:28:22.287Z,6.23
2018-08-31T04:30:54.021Z,5.07
2018-08-31T04:33:25.690Z,4.70
2018-08-31T04:35:57.532Z,5.37
2018-08-31T04:38:29.217Z,5.27
2018-08-31T04:41:01.096Z,4.17
2018-08-31T04:43:32.874Z,5.00
2018-08-31T04:46:04.612Z,6.40
2018-08-31T04:48:36.365Z,6.87
2018-08-31T04:51:08.296Z,6.87
2018-08-31T04:53:40.210Z,7.33
2018-08-31T04:56:11.939Z,6.20
2018-08-31T04:58:43.734Z,5.13
2018-08-31T05:01:15.754Z,5.43
2018-08-31T05:03:47.757Z,5.17
2018-08-31T05:06:19.396Z,5.07
2018-08-31T05:08:51.253Z,5.20
2018-08-31T05:11:23.962Z,5.90
2018-08-31T05:13:55.590Z,5.77
2018-08-31T05:16:27.372Z,6.93
2018-08-31T05:18:59.087Z,7.57
2018-08-31T05:21:30.885Z,6.23
2018-08-31T05:24:02.882Z,6.67
2018-08-31T05:26:34.692Z,5.67
2018-08-31T05:29:06.576Z,5.57
2018-08-31T05:31:38.204Z,6.30
2018-08-31T05:34:10.190Z,6.17
2018-08-31T05:36:42.013Z,5.23
2018-08-31T05:39:14.009Z,4.70
2018-08-31T05:41:45.655Z,4.80
2018-08-31T05:44:17.382Z,5.07
2018-08-31T05:46:49.305Z,3.80
2018-08-31T05:49:21.025Z,3.83
2018-08-31T05:51:52.918Z,3.80
2018-08-31T05:54:24.645Z,5.30
2018-08-31T05:56:56.406Z,6.63
2018-08-31T05:59:28.250Z,4.43
2018-08-31T06:02:00.008Z,3.23
2018-08-31T06:04:31.784Z,7.57
2018-08-31T06:07:03.779Z,7.10
2018-08-31T06:09:35.558Z,6.87
2018-08-31T06:12:07.488Z,7.50
2018-08-31T06:14:39.337Z,6.10
2018-08-31T06:17:11.189Z,6.13
2018-08-31T06:19:42.841Z,5.20
2018-08-31T06:22:14.783Z,4.40
2018-08-31T06:24:46.759Z,3.63
2018-08-31T06:27:18.611Z,4.77
2018-08-31T06:29:50.429Z,3.10
2018-08-31T06:32:22.066Z,3.77
2018-08-31T06:34:53.892Z,5.37
2018-08-31T06:37:25.695Z,6.23
2018-08-31T06:39:57.447Z,5.47
2018-08-31T06:42:29.273Z,4.67
2018-08-31T06:45:00.860Z,5.27
2018-08-31T06:47:32.605Z,7.40
2018-08-31T06:50:04.482Z,5.17
2018-08-31T06:52:36.258Z,6.07
2018-08-31T06:55:07.994Z,5.43
2018-08-31T06:57:39.744Z,2.90
2018-08-31T07:00:11.690Z,3.57
2018-08-31T07:02:43.498Z,4.27
2018-08-31T07:05:15.447Z,6.60
2018-08-31T07:07:47.207Z,3.07
2018-08-31T07:10:19.044Z,4.23
2018-08-31T07:12:50.931Z,2.47
2018-08-31T07:15:22.774Z,4.50
2018-08-31T07:17:54.639Z,4.17
2018-08-31T07:20:26.342Z,3.40
2018-08-31T07:22:58.050Z,3.43
2018-08-31T07:25:29.714Z,4.27
2018-08-31T07:28:01.396Z,3.27
2018-08-31T07:30:33.133Z,2.73
2018-08-31T07:33:04.863Z,2.23
2018-08-31T07:35:36.538Z,1.83
2018-08-31T07:38:08.398Z,2.20
2018-08-31T07:40:40.047Z,2.53
2018-08-31T07:43:11.805Z,1.50
2018-08-31T07:45:43.606Z,5.20
2018-08-31T07:48:15.315Z,3.40
2018-08-31T07:50:47.084Z,4.40
2018-08-31T07:53:18.958Z,2.53
2018-08-31T07:55:50.826Z,3.77
2018-08-31T07:58:22.734Z,4.77
2018-08-31T08:00:54.624Z,2.40
2018-08-31T08:03:26.456Z,3.80
2018-08-31T08:05:58.178Z,4.07
2018-08-31T08:08:30.051Z,2.63
2018-08-31T08:11:01.659Z,4.07
2018-08-31T08:13:33.342Z,3.47
2018-08-31T08:16:05.303Z,5.80
2018-08-31T08:18:37.075Z,3.57
2018-08-31T08:21:08.807Z,2.50
2018-08-31T08:23:40.656Z,2.30
2018-08-31T08:26:12.549Z,5.10
2018-08-31T08:28:44.193Z,1.97
2018-08-31T08:31:16.059Z,2.43
2018-08-31T08:33:47.997Z,2.40
2018-08-31T08:36:19.639Z,4.03
2018-08-31T08:38:51.453Z,2.80
2018-08-31T08:41:23.176Z,3.60
2018-08-31T08:43:55.188Z,2.00
2018-08-31T08:46:26.816Z,3.90
2018-08-31T08:48:58.685Z,3.33
2018-08-31T08:51:30.410Z,3.03
2018-08-31T08:54:02.197Z,3.53
2018-08-31T08:56:33.858Z,2.73
2018-08-31T08:59:05.590Z,2.57
2018-08-31T09:01:37.397Z,1.90
2018-08-31T09:04:09.342Z,3.07
2018-08-31T09:06:41.171Z,3.60
2018-08-31T09:09:13.038Z,2.07
2018-08-31T09:11:45.791Z,3.20
2018-08-31T09:14:17.678Z,3.80
2018-08-31T09:16:49.389Z,3.10
2018-08-31T09:19:21.098Z,1.97
2018-08-31T09:21:52.802Z,4.13
2018-08-31T09:24:24.819Z,4.50
2018-08-31T09:26:56.502Z,5.00
2018-08-31T09:29:28.230Z,3.67
2018-08-31T09:32:03.727Z,4.90
2018-08-31T09:34:38.048Z,4.23
2018-08-31T09:37:09.760Z,3.80
2018-08-31T09:39:41.563Z,2.07
2018-08-31T09:42:13.182Z,1.80
2018-08-31T09:44:44.932Z,2.10
2018-08-31T09:47:16.840Z,3.00
2018-08-31T09:49:48.876Z,3.37
2018-08-31T09:52:20.824Z,2.30
2018-08-31T09:54:52.613Z,4.83
2018-08-31T09:57:24.390Z,3.30
2018-08-31T09:59:56.196Z,2.40
2018-08-31T10:02:32.929Z,3.73
2018-08-31T10:05:04.864Z,3.73
2018-08-31T10:07:36.727Z,3.90
2018-08-31T10:10:08.589Z,3.70
2018-08-31T10:12:40.368Z,3.70
2018-08-31T10:15:11.986Z,4.17
2018-08-31T10:17:43.657Z,3.37
2018-08-31T10:20:15.387Z,2.73
2018-08-31T10:22:47.176Z,2.30
2018-08-31T10:25:18.920Z,1.83
2018-08-31T10:27:50.770Z,1.60
2018-08-31T10:30:22.578Z,2.10
2018-08-31T10:32:54.210Z,4.00
2018-08-31T10:35:26.047Z,2.57
2018-08-31T10:37:58.042Z,3.10
2018-08-31T10:40:29.789Z,2.70
2018-08-31T10:43:01.631Z,2.43
2018-08-31T10:45:33.440Z,2.30
2018-08-31T10:48:05.065Z,2.13
2018-08-31T10:50:36.853Z,4.67
2018-08-31T10:53:08.571Z,3.00
2018-08-31T10:55:40.353Z,2.23
2018-08-31T10:58:12.130Z,2.17
2018-08-31T11:00:43.849Z,1.70
2018-08-31T11:03:15.634Z,2.33
2018-08-31T11:05:47.511Z,3.77
2018-08-31T11:08:19.418Z,2.80
2018-08-31T11:10:51.282Z,2.23
2018-08-31T11:13:23.030Z,3.70
2018-08-31T11:15:54.834Z,2.17
2018-08-31T11:18:26.580Z,1.93
2018-08-31T11:20:58.242Z,2.50
2018-08-31T11:23:30.111Z,1.70
2018-08-31T11:26:01.933Z,2.93
2018-08-31T11:28:33.725Z,2.90
2018-08-31T11:31:05.485Z,1.80
2018-08-31T11:33:37.470Z,2.30
2018-08-31T11:36:09.336Z,2.60
2018-08-31T11:38:40.956Z,1.67
2018-08-31T11:41:12.826Z,2.40
2018-08-31T11:43:44.653Z,3.57
2018-08-31T11:46:16.334Z,3.23
2018-08-31T11:48:48.093Z,4.10
2018-08-31T11:51:20.039Z,1.93
2018-08-31T11:53:51.940Z,2.13
2018-08-31T11:56:23.712Z,2.37
2018-08-31T11:58:55.521Z,1.60
2018-08-31T12:01:27.240Z,1.40
2018-08-31T12:03:59.062Z,1.40
2018-08-31T12:06:30.996Z,1.40
2018-08-31T12:09:02.857Z,1.20
2018-08-31T12:11:34.675Z,1.37
2018-08-31T12:14:06.796Z,1.53
2018-08-31T12:16:38.756Z,2.30
2018-08-31T12:19:10.645Z,2.80
2018-08-31T12:21:42.284Z,2.03
2018-08-31T12:24:14.065Z,1.90
2018-08-31T12:26:45.947Z,2.37
2018-08-31T12:29:17.558Z,1.37
2018-08-31T12:31:49.494Z,2.37
2018-08-31T12:34:21.481Z,3.70
2018-08-31T12:36:53.342Z,3.70
2018-08-31T12:39:25.105Z,4.63
2018-08-31T12:41:56.880Z,3.63
2018-08-31T12:44:28.618Z,3.37
2018-08-31T12:47:00.427Z,3.10
2018-08-31T12:49:32.265Z,2.80
2018-08-31T12:52:04.047Z,2.60
2018-08-31T12:54:35.672Z,4.20
2018-08-31T12:57:07.561Z,3.60
2018-08-31T12:59:39.528Z,2.50
2018-08-31T13:02:11.183Z,3.10
2018-08-31T13:04:42.929Z,3.83
2018-08-31T13:07:14.826Z,3.07
2018-08-31T13:09:46.871Z,2.40
2018-08-31T13:12:18.745Z,2.83
2018-08-31T13:14:50.801Z,2.97
2018-08-31T13:17:22.674Z,2.73
2018-08-31T13:19:54.636Z,3.00
2018-08-31T13:22:26.251Z,2.70
2018-08-31T13:24:57.910Z,2.50
2018-08-31T13:27:29.745Z,3.70
2018-08-31T13:30:01.521Z,4.10
2018-08-31T13:32:33.186Z,4.53
2018-08-31T13:35:04.870Z,3.57
2018-08-31T13:37:36.696Z,3.37
2018-08-31T13:40:08.594Z,5.40
2018-08-31T13:42:40.397Z,5.80
2018-08-31T13:45:12.174Z,4.83
2018-08-31T13:47:43.952Z,5.80
2018-08-31T13:50:15.936Z,4.43
2018-08-31T13:52:47.800Z,4.90
2018-08-31T13:55:19.527Z,5.07
2018-08-31T13:57:51.405Z,4.37
2018-08-31T14:00:23.554Z,5.57
2018-08-31T14:02:55.205Z,4.30
2018-08-31T14:05:26.979Z,3.97
2018-08-31T14:07:58.817Z,3.90
2018-08-31T14:10:31.013Z,3.40
2018-08-31T14:13:03.097Z,3.80
2018-08-31T14:15:34.833Z,3.57
2018-08-31T14:18:06.782Z,3.20
2018-08-31T14:20:38.634Z,3.00
2018-08-31T14:23:10.500Z,3.30
2018-08-31T14:25:42.182Z,2.93
2018-08-31T14:28:13.827Z,3.20
2018-08-31T14:30:45.566Z,3.03
2018-08-31T14:33:17.475Z,3.97
2018-08-31T14:35:49.339Z,3.50
2018-08-31T14:38:21.266Z,4.57
2018-08-31T14:40:53.153Z,3.53
2018-08-31T14:43:25.075Z,3.37
2018-08-31T14:45:56.984Z,4.60
2018-08-31T14:48:28.717Z,4.63
2018-08-31T14:51:00.552Z,4.07
2018-08-31T14:53:32.253Z,4.77
2018-08-31T14:56:03.908Z,3.80
2018-08-31T14:58:35.829Z,3.83
2018-08-31T15:01:07.686Z,3.93
2018-08-31T15:03:39.390Z,4.70
2018-08-31T15:06:11.042Z,3.63
2018-08-31T15:08:42.919Z,3.43
2018-08-31T15:11:14.565Z,3.90
2018-08-31T15:13:46.315Z,3.53
2018-08-31T15:16:18.200Z,3.90
2018-08-31T15:18:49.940Z,3.47
2018-08-31T15:21:21.683Z,4.87
2018-08-31T15:23:53.426Z,4.27
2018-08-31T15:26:25.086Z,2.97
2018-08-31T15:28:56.748Z,2.97
2018-08-31T15:31:28.649Z,4.47
2018-08-31T15:34:00.405Z,3.70
2018-08-31T15:36:32.029Z,3.40
2018-08-31T15:39:04.031Z,2.77
2018-08-31T15:41:35.652Z,3.43
2018-08-31T15:44:07.637Z,3.30
2018-08-31T15:46:39.472Z,4.00
2018-08-31T15:49:11.266Z,3.23
2018-08-31T15:51:42.901Z,3.20
2018-08-31T15:54:14.634Z,2.60
2018-08-31T15:56:46.396Z,2.97
2018-08-31T15:59:18.077Z,2.80
2018-08-31T16:01:50.136Z,2.97
2018-08-31T16:04:21.895Z,4.13
2018-08-31T16:06:53.636Z,4.03
2018-08-31T16:09:25.383Z,5.87
2018-08-31T16:11:57.248Z,3.73
2018-08-31T16:14:29.062Z,3.40
2018-08-31T16:17:00.901Z,4.33
2018-08-31T16:19:33.045Z,3.77
2018-08-31T16:22:05.258Z,4.90
2018-08-31T16:24:37.417Z,5.80
2018-08-31T16:27:09.465Z,4.73
2018-08-31T16:29:41.429Z,5.37
2018-08-31T16:32:13.162Z,5.67
2018-08-31T16:34:45.029Z,4.03
2018-08-31T16:37:16.822Z,3.43
2018-08-31T16:39:48.659Z,3.83
2018-08-31T16:42:20.528Z,4.53
2018-08-31T16:44:52.682Z,3.70
2018-08-31T16:47:47.693Z,3.10
2018-08-31T16:50:51.581Z,3.60
2018-08-31T16:53:41.193Z,4.23
2018-08-31T16:56:17.247Z,2.83
2018-08-31T16:58:59.872Z,3.20
2018-08-31T17:02:07.596Z,3.23
2018-08-31T17:04:52.910Z,3.60
2018-08-31T17:07:28.011Z,3.53
2018-08-31T17:10:05.374Z,4.77
2018-08-31T17:12:41.046Z,3.20
2018-08-31T17:15:15.697Z,4.07
2018-08-31T17:17:50.088Z,3.93
2018-08-31T17:20:22.854Z,3.93
2018-08-31T17:22:54.613Z,3.87
2018-08-31T17:25:26.372Z,3.93
2018-08-31T17:28:03.134Z,3.97
2018-08-31T17:30:34.801Z,4.43
2018-08-31T17:34:14.380Z,4.73
2018-08-31T17:36:51.002Z,4.77
2018-08-31T17:39:22.811Z,4.90
2018-08-31T17:41:54.514Z,5.03
2018-08-31T17:44:26.904Z,4.13
2018-08-31T17:46:58.808Z,5.17
2018-08-31T17:49:30.557Z,4.70
2018-08-31T17:52:02.430Z,4.27
2018-08-31T17:54:34.233Z,4.80
2018-08-31T17:57:06.206Z,3.33
2018-08-31T17:59:37.991Z,4.03
2018-08-31T18:02:10.151Z,4.40
2018-08-31T18:04:41.916Z,3.90
2018-08-31T18:07:13.699Z,4.20
2018-08-31T18:09:45.508Z,4.40
2018-08-31T18:12:17.080Z,4.73
2018-08-31T18:14:48.853Z,4.73
2018-08-31T18:17:20.610Z,4.87
2018-08-31T18:19:52.329Z,4.70
2018-08-31T18:22:24.196Z,5.23
2018-08-31T18:24:56.033Z,5.23
2018-08-31T18:27:27.948Z,5.83
2018-08-31T18:29:59.912Z,5.27
2018-08-31T18:32:31.644Z,5.23
2018-08-31T18:35:03.316Z,4.83
2018-08-31T18:37:35.157Z,4.90
2018-08-31T18:40:07.159Z,4.80
2018-08-31T18:42:38.913Z,4.70
2018-08-31T18:45:10.750Z,4.13
2018-08-31T18:47:42.433Z,4.90
2018-08-31T18:50:14.267Z,5.87
2018-08-31T18:52:45.943Z,4.90
2018-08-31T18:55:17.705Z,4.77
2018-08-31T18:57:49.562Z,5.03
2018-08-31T19:00:21.456Z,5.63
2018-08-31T19:02:53.083Z,6.10
2018-08-31T19:05:24.926Z,6.20
2018-08-31T19:07:56.689Z,6.53
2018-08-31T19:10:28.471Z,5.73
2018-08-31T19:13:00.230Z,6.00
2018-08-31T19:15:31.872Z,5.43
2018-08-31T19:18:03.537Z,5.10
2018-08-31T19:20:35.424Z,6.00
2018-08-31T19:23:07.077Z,5.63
2018-08-31T19:25:38.806Z,6.20
2018-08-31T19:28:10.642Z,6.00
2018-08-31T19:30:42.417Z,5.17
2018-08-31T19:33:14.275Z,4.87
2018-08-31T19:35:46.134Z,5.37
2018-08-31T19:38:17.813Z,5.67
2018-08-31T19:40:49.481Z,5.87
2018-08-31T19:43:21.306Z,5.67
2018-08-31T19:45:52.977Z,4.50
2018-08-31T19:48:24.644Z,5.07
2018-08-31T19:50:56.393Z,4.43
2018-08-31T19:53:28.059Z,4.13
2018-08-31T19:55:59.838Z,4.50
2018-08-31T19:58:31.418Z,5.20
2018-08-31T20:01:03.241Z,6.37
2018-08-31T20:03:35.065Z,5.73
2018-08-31T20:06:07.030Z,5.97
2018-08-31T20:08:38.815Z,6.77
2018-08-31T20:11:10.582Z,6.33
2018-08-31T20:13:42.329Z,5.27
2018-08-31T20:16:14.057Z,5.87
2018-08-31T20:18:45.749Z,5.67
2018-08-31T20:21:17.587Z,6.10
2018-08-31T20:23:49.252Z,6.03
2018-08-31T20:26:20.929Z,5.33
2018-08-31T20:28:52.813Z,5.37
2018-08-31T20:31:24.687Z,5.03
2018-08-31T20:33:56.558Z,5.80
2018-08-31T20:36:28.490Z,5.10
2018-08-31T20:39:00.357Z,6.23
2018-08-31T20:41:31.977Z,6.30
2018-08-31T20:44:03.876Z,5.87
2018-08-31T20:46:35.741Z,5.47
2018-08-31T20:49:07.365Z,5.70
2018-08-31T20:51:39.104Z,5.73
2018-08-31T20:54:10.905Z,5.60
2018-08-31T20:56:42.631Z,5.60
2018-08-31T20:59:14.449Z,5.33
2018-08-31T21:01:46.235Z,5.40
2018-08-31T21:04:17.929Z,6.07
2018-08-31T21:06:49.885Z,6.10
2018-08-31T21:09:21.671Z,5.67
2018-08-31T21:11:53.429Z,5.20
2018-08-31T21:14:25.139Z,4.93
2018-08-31T21:16:57.052Z,5.43
2018-08-31T21:19:28.673Z,4.87
2018-08-31T21:22:00.333Z,5.60
2018-08-31T21:24:32.122Z,5.03
2018-08-31T21:27:03.880Z,5.97
2018-08-31T21:29:35.609Z,4.33
2018-08-31T21:32:07.686Z,4.30
2018-08-31T21:34:39.322Z,5.33
2018-08-31T21:37:10.992Z,5.10
2018-08-31T21:39:42.724Z,4.60
2018-08-31T21:42:14.457Z,4.43
2018-08-31T21:44:46.070Z,5.70
2018-08-31T21:47:17.906Z,4.43
2018-08-31T21:49:49.687Z,4.50
2018-08-31T21:52:21.369Z,4.30
2018-08-31T21:54:53.181Z,5.03
2018-08-31T21:57:24.850Z,4.17
2018-08-31T21:59:56.518Z,4.63
2018-08-31T22:02:28.353Z,4.67
2018-08-31T22:05:00.024Z,4.87
2018-08-31T22:07:31.789Z,4.93
2018-08-31T22:10:03.738Z,4.50
2018-08-31T22:12:35.647Z,4.60
2018-08-31T22:15:12.214Z,4.50
2018-08-31T22:17:43.841Z,3.60
2018-08-31T22:20:15.602Z,4.33
2018-08-31T22:22:47.449Z,4.63
2018-08-31T22:25:19.116Z,5.27
2018-08-31T22:27:50.797Z,6.47
2018-08-31T22:30:22.726Z,5.27
2018-08-31T22:32:54.509Z,5.20
2018-08-31T22:35:26.163Z,5.20
2018-08-31T22:37:58.105Z,5.43
2018-08-31T22:40:30.062Z,5.10
2018-08-31T22:43:01.882Z,4.87
2018-08-31T22:45:33.603Z,4.77
2018-08-31T22:48:05.440Z,4.47
2018-08-31T22:50:37.109Z,4.37
2018-08-31T22:53:08.777Z,4.07
2018-08-31T22:55:40.510Z,4.50
2018-08-31T22:58:12.196Z,5.03
2018-08-31T23:00:44.025Z,5.83
2018-08-31T23:03:15.781Z,5.93
2018-08-31T23:05:47.421Z,4.67
2018-08-31T23:08:19.306Z,4.07
2018-08-31T23:10:51.018Z,5.53
2018-08-31T23:13:22.772Z,5.73
2018-08-31T23:15:54.463Z,6.07
2018-08-31T23:18:26.363Z,4.87
2018-08-31T23:20:58.151Z,4.93
2018-08-31T23:24:00.529Z,5.60
2018-08-31T23:26:32.338Z,5.33
2018-08-31T23:29:04.010Z,5.63
2018-08-31T23:31:35.679Z,4.90
2018-08-31T23:34:07.405Z,5.30
2018-08-31T23:36:39.085Z,4.50
2018-08-31T23:39:11.081Z,4.13
2018-08-31T23:41:42.888Z,5.37
2018-08-31T23:44:14.757Z,4.87
2018-08-31T23:46:46.536Z,5.53
2018-08-31T23:49:18.321Z,4.43
2018-08-31T23:51:50.049Z,5.10
2018-08-31T23:54:21.896Z,4.83
2018-08-31T23:56:53.803Z,5.30
2018-08-31T23:59:25.422Z,5.27
